Language selection

My Weather Profile Weather Topics  | 

Howe Sound: Past 24 Hour Conditions

 

La Perouse Bank - 46206

01:00 PM PST 21 January 2021Buoy position: 48.83N 126.0W
Disclaimer

This table is a summary of hourly weather conditions for the past 24 hours.
Please note that these observations might not always be representative of weather conditions over their associated marine area.

Date / Time
(PST)
Wind(knots) Wave height(m) Wave period(s) Pressure(kPa) Air tempC) Water tempC)
21 January 2021
13:00 NE 4 gust 6 1.7 12.0 101.9 8 9
12:00 E 4 gust 6 1.5 12.0 101.9 8 9
11:00 E 6 gust 8 1.7 12.0 101.9 7 9
10:00 E 10 gust 12 1.9 12.0 101.9 7 9
9:00 E 10 gust 13 1.9 12.0 101.9 7 9
8:00 E 13 gust 16 1.7 12.0 101.8 8 9
7:00 ESE 12 gust 16 1.9 13.0 101.8 8 9
6:00 ESE 13 gust 17 1.8 12.0 101.8 7 9
5:00 ESE 16 gust 19 2.0 14.0 101.8 7 9
4:00 ESE 13 gust 17 2.1 12.0 101.8 7 9
3:00 E 13 gust 17 2.2 14.0 101.9 7 9
2:00 ESE 13 gust 17 2.3 13.0 101.9 7 9
1:00 E 13 gust 17 2.4 12.0 101.9 7 9
0:00 E 13 gust 17 2.5 12.0 101.9 7 9
20 January 2021
23:00 ESE 13 gust 16 2.4 13.0 101.9 7 9
22:00 ESE 12 gust 16 2.2 11.0 101.9 8 9
21:00 SE 13 gust 16 2.2 13.0 101.9 8 9
20:00 SE 12 gust 16 2.4 12.0 102.0 8 9
19:00 ESE 12 gust 16 2.1 12.0 102.0 8 9
18:00 ESE 8 gust 10 2.1 13.0 102.0 8 9
17:00 ESE 8 gust 10 2.1 13.0 102.0 8 9
16:00 ESE 10 gust 12 2.0 12.0 102.0 8 9
15:00 E 8 gust 12 1.7 12.0 102.0 8 9
14:00 ESE 6 gust 8 1.8 14.0 102.1 8 9
13:00 E 8 gust 10 1.9 14.0 102.1 8 9

Zoom-in to make a selection

Map of Pacific - Georgia Basin marine weather areas Sentry Shoal - 46131 Halibut Bank - 46146 La Perouse Bank - 46206 Georgia Strait - 46303 English Bay - 46304 Discovery Island Esquimalt Harbour Kelp Reefs Malahat Race Rocks Lightstation Saturna Island Sheringham Point University of Victoria Victoria Gonzales Victoria Int'l Airport Ballenas Islands Campbell River Airport Comox Airport Entrance Island Fanny Island Nanaimo Airport Sisters Islets Estevan Point Port Alberni Tofino Airport Grief Point Howe Sound - Pam Rocks Powell River Airport Sechelt Squamish Airport Point Atkinson Sand Heads Lightstation Tsawwassen Ferry Terminal Vancouver Int'l Airport Vancouver Harbour West Vancouver
Legend:
buoy Buoy
land station Land Station

Pacific - Georgia Basin Area

Another Region

What we are doing

Features

Need to travel Alberta Highway 93?

Go prepared with Highway 93 forecasts. Highway regions are available in the Alberta text forecast bulletin between Lake Louise and Jasper. (Photo by: Natalie Anderson)

Date modified: